Time;durP1;ratioP1;P1;durP2;ratioP2;P2;SDS_P1;SDS_P2;PMS_P1;PMS_P2;Temp;Humidity;BMP_temperature;BMP_pressure;BME280_temperature;BME280_humidity;BME280_pressure;Samples;Min_cycle;Max_cycle;Signal;HPM_P1;HPM_P2
2024/01/23 00:01:25;;;;;;;7.03;2.25;;;15.80;55.80;;;;;;5053222;28;20171;-69
2024/01/23 00:03:51;;;;;;;5.28;1.98;;;15.80;55.80;;;;;;5054264;28;20171;-69
2024/01/23 00:06:16;;;;;;;4.95;2.20;;;15.80;55.90;;;;;;5053999;28;20182;-68
2024/01/23 00:08:42;;;;;;;6.03;2.58;;;15.80;55.80;;;;;;5053697;28;20175;-68
2024/01/23 00:11:07;;;;;;;5.43;2.03;;;15.80;55.90;;;;;;5054300;28;20518;-68
2024/01/23 00:13:33;;;;;;;7.68;2.53;;;15.80;55.90;;;;;;5053682;28;20661;-68
2024/01/23 00:15:58;;;;;;;5.00;2.42;;;15.70;56.00;;;;;;5053419;28;20170;-68
2024/01/23 00:18:24;;;;;;;6.03;2.10;;;15.70;55.90;;;;;;5053688;28;20179;-68
2024/01/23 00:20:49;;;;;;;6.20;2.25;;;15.80;56.00;;;;;;5053860;28;20587;-68
2024/01/23 00:23:15;;;;;;;5.20;2.15;;;15.70;55.90;;;;;;5053407;28;20657;-68
2024/01/23 00:25:40;;;;;;;6.32;2.10;;;15.70;55.90;;;;;;5053599;28;20264;-68
2024/01/23 00:28:06;;;;;;;9.18;2.20;;;15.70;55.90;;;;;;5053900;28;20182;-68
2024/01/23 00:30:32;;;;;;;3.92;1.90;;;15.70;56.00;;;;;;5052353;28;20627;-68
2024/01/23 00:32:59;;;;;;;4.55;2.28;;;15.70;55.90;;;;;;5053844;28;20179;-69
2024/01/23 00:35:24;;;;;;;7.30;2.53;;;15.70;55.90;;;;;;5053254;28;20630;-68
2024/01/23 00:37:50;;;;;;;5.50;2.20;;;15.70;56.00;;;;;;5053125;28;20190;-69
2024/01/23 00:40:15;;;;;;;6.85;2.08;;;15.70;55.90;;;;;;5053632;28;20209;-69
2024/01/23 00:42:41;;;;;;;4.05;2.03;;;15.70;55.90;;;;;;5053528;28;20171;-68
2024/01/23 00:45:06;;;;;;;5.53;2.17;;;15.70;56.00;;;;;;5052783;28;20709;-69
2024/01/23 00:47:32;;;;;;;4.75;2.35;;;15.70;56.00;;;;;;5053132;28;20258;-69
2024/01/23 00:49:57;;;;;;;5.32;2.60;;;15.70;56.00;;;;;;5052651;28;20171;-69
2024/01/23 00:52:23;;;;;;;5.25;2.38;;;15.70;56.00;;;;;;5053295;28;20171;-68
2024/01/23 00:54:48;;;;;;;4.72;2.05;;;15.60;55.90;;;;;;5053175;28;20306;-68
2024/01/23 00:57:14;;;;;;;5.07;2.33;;;15.60;55.90;;;;;;5052836;28;20202;-69
2024/01/23 00:59:39;;;;;;;7.13;2.05;;;15.70;55.90;;;;;;5052973;28;20242;-67
2024/01/23 01:02:05;;;;;;;6.97;2.30;;;15.60;56.00;;;;;;5053309;28;20305;-69
2024/01/23 01:04:30;;;;;;;4.55;2.05;;;15.60;56.00;;;;;;5052223;28;20232;-68
2024/01/23 01:06:56;;;;;;;6.32;1.98;;;15.60;56.10;;;;;;5053325;28;20651;-68
2024/01/23 01:09:21;;;;;;;5.45;2.22;;;15.60;56.10;;;;;;5053093;28;20597;-68
2024/01/23 01:11:47;;;;;;;4.28;1.70;;;15.60;56.10;;;;;;5052391;28;20640;-68
2024/01/23 01:14:13;;;;;;;5.25;2.28;;;15.60;56.10;;;;;;5052921;28;20167;-68
2024/01/23 01:16:38;;;;;;;5.78;2.08;;;15.60;56.10;;;;;;5052695;28;20171;-68
2024/01/23 01:19:04;;;;;;;4.43;2.15;;;15.60;56.10;;;;;;5051959;28;20203;-68
2024/01/23 01:21:30;;;;;;;4.97;1.83;;;15.60;56.10;;;;;;5052476;28;20182;-68
2024/01/23 01:23:55;;;;;;;5.28;1.67;;;15.60;56.10;;;;;;5052701;28;20253;-68
2024/01/23 01:26:21;;;;;;;4.63;2.30;;;15.60;56.10;;;;;;5051772;28;20171;-68
2024/01/23 01:28:46;;;;;;;4.88;2.13;;;15.60;56.10;;;;;;5052690;28;20254;-67
2024/01/23 01:31:12;;;;;;;3.72;1.77;;;15.60;56.10;;;;;;5052697;28;20249;-68
2024/01/23 01:33:37;;;;;;;4.03;2.20;;;15.60;56.10;;;;;;5051509;28;20661;-68
2024/01/23 01:36:03;;;;;;;4.97;2.05;;;15.60;56.20;;;;;;5052546;28;20175;-68
2024/01/23 01:38:29;;;;;;;4.18;2.25;;;15.50;56.10;;;;;;5052312;28;20179;-68
2024/01/23 01:40:57;;;;;;;8.43;2.65;;;15.50;56.10;;;;;;5051851;28;20553;-68
2024/01/23 01:43:26;;;;;;;6.25;2.28;;;15.60;56.10;;;;;;5051427;28;20191;-68
2024/01/23 01:46:23;;;;;;;6.80;2.45;;;15.50;56.20;;;;;;5052443;28;20179;-69
2024/01/23 01:48:48;;;;;;;3.20;1.58;;;15.50;56.10;;;;;;5049944;28;20606;-69
2024/01/23 01:51:15;;;;;;;6.53;2.20;;;15.50;56.10;;;;;;5052302;28;20249;-68
2024/01/23 01:53:40;;;;;;;4.78;2.28;;;15.50;56.20;;;;;;5051281;28;20265;-68
2024/01/23 01:56:06;;;;;;;4.28;1.95;;;15.50;56.20;;;;;;5051980;28;20272;-67
2024/01/23 01:58:32;;;;;;;5.60;2.20;;;15.50;56.10;;;;;;5050597;28;20187;-68
2024/01/23 02:00:59;;;;;;;5.10;1.95;;;15.50;56.10;;;;;;5051489;28;20176;-68
2024/01/23 02:03:26;;;;;;;5.63;2.25;;;15.50;56.20;;;;;;5051768;28;20523;-68
2024/01/23 02:05:52;;;;;;;5.75;2.38;;;15.50;56.20;;;;;;5050910;28;20681;-68
2024/01/23 02:08:17;;;;;;;5.65;2.17;;;15.50;56.80;;;;;;5050985;28;20218;-68
2024/01/23 02:10:44;;;;;;;4.63;2.47;;;15.50;56.20;;;;;;5050937;28;20266;-68
2024/01/23 02:13:09;;;;;;;5.60;2.08;;;15.50;56.20;;;;;;5052022;28;20263;-67
2024/01/23 02:15:35;;;;;;;6.53;2.40;;;15.50;56.10;;;;;;5051260;28;20281;-68
2024/01/23 02:18:01;;;;;;;5.78;2.38;;;15.40;56.20;;;;;;5052053;28;20217;-68
2024/01/23 02:20:26;;;;;;;8.23;2.67;;;15.40;56.10;;;;;;5051740;28;20214;-68
2024/01/23 02:22:52;;;;;;;5.25;2.05;;;15.40;56.10;;;;;;5051419;28;20171;-68
2024/01/23 02:25:18;;;;;;;4.88;1.90;;;15.50;56.10;;;;;;5051846;28;20226;-67
2024/01/23 02:27:44;;;;;;;5.80;1.92;;;15.40;56.20;;;;;;5052019;28;20262;-68
2024/01/23 02:30:10;;;;;;;6.05;2.40;;;15.40;56.10;;;;;;5051499;28;20277;-67
2024/01/23 02:32:35;;;;;;;5.90;2.83;;;15.40;56.10;;;;;;5051728;28;20194;-67
2024/01/23 02:35:01;;;;;;;5.05;2.45;;;15.40;56.10;;;;;;5051976;28;20548;-68
2024/01/23 02:37:26;;;;;;;5.63;2.10;;;15.40;56.10;;;;;;5050906;28;20546;-67
2024/01/23 02:39:53;;;;;;;5.38;2.15;;;15.40;56.10;;;;;;5051627;28;20670;-68
2024/01/23 02:42:18;;;;;;;4.70;1.58;;;15.40;56.10;;;;;;5051324;28;20199;-67
2024/01/23 02:44:45;;;;;;;6.40;2.53;;;15.30;56.10;;;;;;5051604;28;20198;-68
2024/01/23 02:47:13;;;;;;;6.90;2.33;;;15.40;56.10;;;;;;5051669;28;20202;-68
2024/01/23 02:49:39;;;;;;;5.05;1.80;;;15.30;56.10;;;;;;5050866;28;20179;-68
2024/01/23 02:52:05;;;;;;;5.25;1.92;;;15.40;56.10;;;;;;5051836;28;20220;-68
2024/01/23 02:54:31;;;;;;;7.82;2.13;;;15.40;56.10;;;;;;5053130;28;20317;-68
2024/01/23 02:56:57;;;;;;;5.55;1.95;;;15.40;56.10;;;;;;5054913;28;20194;-68
2024/01/23 02:59:22;;;;;;;5.53;1.92;;;15.30;56.00;;;;;;5055291;28;20794;-68
2024/01/23 03:01:48;;;;;;;6.60;2.08;;;15.40;56.10;;;;;;5055490;28;20179;-68
2024/01/23 03:04:14;;;;;;;8.35;2.42;;;15.30;56.00;;;;;;5054682;28;20273;-68
2024/01/23 03:06:39;;;;;;;5.13;2.40;;;15.30;56.10;;;;;;5055107;28;20364;-68
2024/01/23 03:09:06;;;;;;;4.45;2.10;;;15.30;56.00;;;;;;5055389;28;20182;-68
2024/01/23 03:11:32;;;;;;;5.75;2.28;;;15.30;56.10;;;;;;5054308;28;20186;-68
2024/01/23 03:13:57;;;;;;;7.72;2.25;;;15.30;56.00;;;;;;5055221;28;20179;-67
2024/01/23 03:16:23;;;;;;;4.50;2.03;;;15.30;56.10;;;;;;5055086;28;20175;-68
2024/01/23 03:18:48;;;;;;;6.97;2.70;;;15.30;56.10;;;;;;5054325;28;20203;-67
2024/01/23 03:21:14;;;;;;;6.63;2.97;;;15.30;56.10;;;;;;5055051;28;20175;-68
2024/01/23 03:23:40;;;;;;;7.10;2.50;;;15.30;56.20;;;;;;5054828;28;20403;-67
2024/01/23 03:26:05;;;;;;;3.97;2.00;;;15.30;56.10;;;;;;5054224;28;20668;-67
2024/01/23 03:28:31;;;;;;;8.10;2.20;;;15.30;56.10;;;;;;5054921;28;20187;-68
2024/01/23 03:30:56;;;;;;;4.00;2.10;;;15.30;56.70;;;;;;5054905;28;20709;-68
2024/01/23 03:33:22;;;;;;;6.03;2.30;;;15.30;56.20;;;;;;5053796;28;20181;-68
2024/01/23 03:35:49;;;;;;;4.75;2.28;;;15.30;56.10;;;;;;5054805;28;20206;-68
2024/01/23 03:38:14;;;;;;;4.38;2.00;;;15.20;56.10;;;;;;5054659;28;20518;-68
2024/01/23 03:40:40;;;;;;;7.22;2.40;;;15.20;56.10;;;;;;5053648;28;20272;-68
2024/01/23 03:43:05;;;;;;;4.28;2.05;;;15.20;56.10;;;;;;5054682;28;20175;-68
2024/01/23 03:45:31;;;;;;;5.97;2.08;;;15.20;56.10;;;;;;5054458;28;20178;-69
2024/01/23 03:47:57;;;;;;;5.72;2.90;;;15.20;56.10;;;;;;5053952;28;20546;-69
2024/01/23 03:50:23;;;;;;;6.30;2.17;;;15.20;56.10;;;;;;5054246;28;20171;-68
2024/01/23 03:52:51;;;;;;;5.50;1.98;;;15.20;56.10;;;;;;5053688;28;20225;-68
2024/01/23 03:55:17;;;;;;;5.03;1.98;;;15.20;56.10;;;;;;5054126;28;20179;-68
2024/01/23 03:57:44;;;;;;;4.88;2.38;;;15.20;56.10;;;;;;5054618;28;20228;-68
2024/01/23 04:00:10;;;;;;;5.63;1.92;;;15.20;56.10;;;;;;5053776;28;20577;-67
2024/01/23 04:02:37;;;;;;;6.25;2.28;;;15.20;56.10;;;;;;5053906;28;20638;-67
2024/01/23 04:05:04;;;;;;;5.82;2.63;;;15.20;56.00;;;;;;5053793;28;20263;-67
2024/01/23 04:07:33;;;;;;;4.78;2.35;;;15.20;56.70;;;;;;5052930;28;20308;-67
2024/01/23 04:09:59;;;;;;;8.32;1.92;;;15.20;56.10;;;;;;5054084;28;20250;-68
2024/01/23 04:12:25;;;;;;;5.57;2.38;;;15.20;56.10;;;;;;5053916;28;20179;-67
2024/01/23 04:14:51;;;;;;;6.30;2.15;;;15.20;56.10;;;;;;5053397;28;20187;-67
2024/01/23 04:17:16;;;;;;;6.63;2.40;;;15.20;56.10;;;;;;5053840;28;20171;-67
2024/01/23 04:19:42;;;;;;;6.85;2.45;;;15.20;56.10;;;;;;5054078;28;20691;-67
2024/01/23 04:22:08;;;;;;;6.35;1.98;;;15.20;56.10;;;;;;5053172;28;20258;-67
2024/01/23 04:24:40;;;;;;;5.35;2.17;;;15.10;56.10;;;;;;5053560;28;20313;-67
2024/01/23 04:27:06;;;;;;;5.00;2.38;;;15.20;56.80;;;;;;5054108;28;20233;-67
2024/01/23 04:29:32;;;;;;;7.63;2.40;;;15.10;56.10;;;;;;5052936;28;20175;-69
2024/01/23 04:31:58;;;;;;;6.18;2.50;;;15.10;56.00;;;;;;5053946;28;20187;-68
2024/01/23 04:34:23;;;;;;;4.57;2.22;;;15.10;56.70;;;;;;5053420;28;20530;-68
2024/01/23 04:36:49;;;;;;;5.10;2.38;;;15.10;56.10;;;;;;5052972;28;20225;-68
2024/01/23 04:39:17;;;;;;;6.22;2.38;;;15.10;56.10;;;;;;5053802;28;20253;-69
2024/01/23 04:41:43;;;;;;;3.63;2.05;;;15.10;56.10;;;;;;5053570;28;20179;-68
2024/01/23 04:44:09;;;;;;;6.20;2.65;;;15.10;56.10;;;;;;5052803;28;20181;-69
2024/01/23 04:46:35;;;;;;;4.53;2.17;;;15.10;56.10;;;;;;5053348;28;20171;-69
2024/01/23 04:49:00;;;;;;;6.07;2.85;;;15.10;56.10;;;;;;5052695;28;20182;-69
2024/01/23 04:51:26;;;;;;;5.70;2.03;;;15.10;56.10;;;;;;5053057;28;20262;-69
2024/01/23 04:53:52;;;;;;;8.00;2.92;;;15.10;56.10;;;;;;5053135;28;20313;-68
2024/01/23 04:56:21;;;;;;;7.22;2.33;;;15.10;56.10;;;;;;5052439;28;20845;-68
2024/01/23 04:58:46;;;;;;;5.68;2.22;;;15.10;56.10;;;;;;5053317;28;20270;-69
2024/01/23 05:01:12;;;;;;;5.25;2.10;;;15.10;56.10;;;;;;5053160;28;20634;-68
2024/01/23 05:03:38;;;;;;;5.47;2.22;;;15.10;56.10;;;;;;5052281;28;20173;-68
2024/01/23 05:06:04;;;;;;;4.93;2.10;;;15.10;56.10;;;;;;5053057;28;20262;-68
2024/01/23 05:08:30;;;;;;;7.35;2.40;;;15.10;56.10;;;;;;5053015;28;20174;-68
2024/01/23 05:10:55;;;;;;;5.88;2.58;;;15.10;56.00;;;;;;5052386;28;20183;-68
2024/01/23 05:13:21;;;;;;;6.90;2.53;;;15.10;56.10;;;;;;5052802;28;20175;-69
2024/01/23 05:15:47;;;;;;;5.88;2.30;;;15.10;56.10;;;;;;5052891;28;20262;-68
2024/01/23 05:18:12;;;;;;;4.55;2.25;;;15.10;56.00;;;;;;5052261;28;20175;-68
2024/01/23 05:20:38;;;;;;;6.22;2.20;;;15.10;56.00;;;;;;5052430;28;20212;-69
2024/01/23 05:23:03;;;;;;;8.05;2.80;;;15.10;56.10;;;;;;5053029;28;20182;-68
2024/01/23 05:25:29;;;;;;;6.32;2.60;;;15.00;55.90;;;;;;5051595;28;20738;-68
2024/01/23 05:27:55;;;;;;;4.90;2.28;;;15.00;56.10;;;;;;5052822;28;20177;-68
2024/01/23 05:30:21;;;;;;;5.97;2.00;;;15.00;55.90;;;;;;5052236;28;20544;-68
2024/01/23 05:32:46;;;;;;;5.32;2.55;;;15.00;55.90;;;;;;5051974;28;20203;-69
2024/01/23 05:35:12;;;;;;;5.25;1.95;;;15.00;56.00;;;;;;5052601;28;20167;-69
2024/01/23 05:37:38;;;;;;;4.65;2.20;;;15.00;56.00;;;;;;5052076;28;20602;-69
2024/01/23 05:40:04;;;;;;;5.70;2.28;;;15.00;56.00;;;;;;5051844;28;20272;-69
2024/01/23 05:42:29;;;;;;;5.05;1.90;;;15.00;56.10;;;;;;5052137;28;20174;-69
2024/01/23 05:44:56;;;;;;;6.63;2.47;;;15.00;56.10;;;;;;5052533;28;20179;-69
2024/01/23 05:47:21;;;;;;;4.43;1.90;;;15.00;56.10;;;;;;5051424;28;20191;-69
2024/01/23 05:49:47;;;;;;;5.18;2.30;;;15.00;56.10;;;;;;5052354;28;20178;-69
2024/01/23 05:52:12;;;;;;;4.78;2.10;;;15.00;56.00;;;;;;5052123;28;20575;-70
2024/01/23 05:54:41;;;;;;;5.25;2.10;;;15.10;56.00;;;;;;5051417;28;20276;-69
2024/01/23 05:57:09;;;;;;;5.32;2.05;;;15.10;56.00;;;;;;5052388;28;20176;-69
2024/01/23 05:59:35;;;;;;;5.70;2.38;;;15.10;55.90;;;;;;5051250;28;20203;-68
2024/01/23 06:02:00;;;;;;;5.75;2.30;;;15.20;55.90;;;;;;5052261;28;20312;-68
2024/01/23 06:04:26;;;;;;;4.53;2.17;;;15.20;55.80;;;;;;5051767;28;20537;-68
2024/01/23 06:06:51;;;;;;;4.05;1.90;;;15.30;55.80;;;;;;5051706;28;20261;-67
2024/01/23 06:09:17;;;;;;;5.55;2.05;;;15.30;55.80;;;;;;5051689;28;20240;-67
2024/01/23 06:11:42;;;;;;;3.88;1.90;;;15.40;55.70;;;;;;5052091;28;20175;-67
2024/01/23 06:14:08;;;;;;;3.78;2.17;;;15.40;55.70;;;;;;5051449;28;20198;-67
2024/01/23 06:16:34;;;;;;;5.32;2.13;;;15.50;55.60;;;;;;5051611;28;20174;-68
2024/01/23 06:18:59;;;;;;;3.67;1.70;;;15.60;55.50;;;;;;5051828;28;20265;-67
2024/01/23 06:21:25;;;;;;;3.40;1.90;;;15.60;55.50;;;;;;5050851;28;20195;-67
2024/01/23 06:23:50;;;;;;;3.90;1.77;;;15.60;55.30;;;;;;5051808;28;20262;-67
2024/01/23 06:26:16;;;;;;;3.70;1.67;;;15.70;55.30;;;;;;5051740;28;20206;-67
2024/01/23 06:28:42;;;;;;;3.28;2.13;;;15.90;55.30;;;;;;5052086;28;20171;-68
2024/01/23 06:31:07;;;;;;;4.68;1.73;;;15.80;55.20;;;;;;5056033;28;20703;-68
2024/01/23 06:33:33;;;;;;;4.45;2.03;;;15.80;55.10;;;;;;5055690;28;20607;-68
2024/01/23 06:35:59;;;;;;;3.10;1.67;;;15.90;55.00;;;;;;5055606;28;20715;-69
2024/01/23 06:38:24;;;;;;;4.28;1.70;;;15.90;54.90;;;;;;5055789;28;20175;-67
2024/01/23 06:40:50;;;;;;;4.43;2.40;;;15.90;54.90;;;;;;5055957;28;20583;-67
2024/01/23 06:43:15;;;;;;;4.22;2.15;;;16.00;54.90;;;;;;5055143;28;20288;-68
2024/01/23 06:45:41;;;;;;;3.97;2.08;;;16.00;54.90;;;;;;5055838;28;20254;-68
2024/01/23 06:48:07;;;;;;;2.70;1.52;;;16.10;54.70;;;;;;5055655;28;20239;-68
2024/01/23 06:50:32;;;;;;;4.68;1.85;;;16.10;54.60;;;;;;5054619;28;20186;-69
2024/01/23 06:52:58;;;;;;;4.95;2.28;;;16.20;54.60;;;;;;5055710;28;20227;-68
2024/01/23 06:55:23;;;;;;;4.47;1.70;;;16.40;54.40;;;;;;5055416;28;20186;-67
2024/01/23 06:57:49;;;;;;;2.85;1.58;;;16.50;54.30;;;;;;5054987;28;20273;-68
2024/01/23 07:00:15;;;;;;;4.38;1.38;;;16.60;54.20;;;;;;5055520;28;20219;-68
2024/01/23 07:02:40;;;;;;;3.30;1.70;;;16.80;54.00;;;;;;5054733;28;20183;-68
2024/01/23 07:05:06;;;;;;;4.38;2.05;;;16.80;53.80;;;;;;5055421;28;20618;-68
2024/01/23 07:07:32;;;;;;;3.78;1.58;;;16.90;53.70;;;;;;5055224;28;20178;-69
2024/01/23 07:09:57;;;;;;;4.28;1.98;;;16.80;53.70;;;;;;5054837;28;20186;-68
2024/01/23 07:12:23;;;;;;;2.80;1.50;;;16.80;53.70;;;;;;5055113;28;20171;-68
2024/01/23 07:14:48;;;;;;;4.00;1.67;;;16.80;53.80;;;;;;5055221;28;20181;-68
2024/01/23 07:17:15;;;;;;;6.40;1.92;;;16.80;53.90;;;;;;5054425;28;20250;-68
2024/01/23 07:19:41;;;;;;;4.70;1.83;;;16.80;53.90;;;;;;5054924;28;20215;-68
2024/01/23 07:22:06;;;;;;;4.15;1.98;;;16.80;53.90;;;;;;5055326;28;20175;-68
2024/01/23 07:24:32;;;;;;;5.47;1.80;;;16.80;53.90;;;;;;5054180;28;20240;-67
2024/01/23 07:26:57;;;;;;;5.80;1.85;;;16.70;54.60;;;;;;5055195;28;20179;-68
2024/01/23 07:29:23;;;;;;;3.65;1.63;;;16.80;54.00;;;;;;5054646;28;20308;-68
2024/01/23 07:31:48;;;;;;;5.20;2.08;;;16.80;53.90;;;;;;5054040;28;20262;-68
2024/01/23 07:34:14;;;;;;;5.00;1.52;;;16.90;54.00;;;;;;5054614;28;20178;-68
2024/01/23 07:36:39;;;;;;;3.65;1.67;;;16.90;53.90;;;;;;5054665;28;20179;-69
2024/01/23 07:39:05;;;;;;;4.28;1.77;;;17.00;53.90;;;;;;5053983;28;20214;-68
2024/01/23 07:41:31;;;;;;;5.18;2.17;;;17.00;53.90;;;;;;5052357;28;20171;-68
2024/01/23 07:43:56;;;;;;;3.67;1.95;;;17.00;53.80;;;;;;5053972;28;20561;-70
2024/01/23 07:46:22;;;;;;;3.58;1.80;;;17.00;53.80;;;;;;5053521;28;20210;-69
2024/01/23 07:48:48;;;;;;;4.13;1.80;;;17.00;53.80;;;;;;5054565;28;20178;-68
2024/01/23 07:51:14;;;;;;;3.80;1.58;;;17.00;53.80;;;;;;5054727;28;20183;-68
2024/01/23 07:53:39;;;;;;;5.55;2.45;;;17.10;53.90;;;;;;5053406;28;20828;-68
2024/01/23 07:56:05;;;;;;;5.03;1.85;;;17.10;53.90;;;;;;5054473;28;20715;-68
2024/01/23 07:58:31;;;;;;;3.97;1.75;;;17.10;53.90;;;;;;5053881;28;20190;-68
2024/01/23 08:00:56;;;;;;;6.15;2.30;;;17.10;54.00;;;;;;5053747;28;20232;-69
2024/01/23 08:03:22;;;;;;;4.90;1.92;;;17.20;54.00;;;;;;5054182;28;20198;-68
2024/01/23 08:05:47;;;;;;;5.55;2.05;;;17.10;54.00;;;;;;5054470;28;20171;-69
2024/01/23 08:08:13;;;;;;;4.07;2.00;;;17.20;54.10;;;;;;5053636;28;20522;-68
2024/01/23 08:10:41;;;;;;;5.82;1.73;;;17.20;54.00;;;;;;5053589;28;20179;-70
2024/01/23 08:13:07;;;;;;;4.25;1.83;;;17.20;54.10;;;;;;5053567;28;20179;-68
2024/01/23 08:15:34;;;;;;;4.63;2.10;;;17.30;54.00;;;;;;5053721;28;20721;-67
2024/01/23 08:18:03;;;;;;;4.45;1.80;;;17.30;54.00;;;;;;5053878;28;20199;-67
2024/01/23 08:20:29;;;;;;;7.78;2.67;;;17.30;54.00;;;;;;5052796;28;20225;-67
2024/01/23 08:22:55;;;;;;;2.55;1.58;;;17.20;54.00;;;;;;5053654;28;20258;-67
2024/01/23 08:25:20;;;;;;;3.50;2.03;;;17.20;54.10;;;;;;5053317;28;20605;-67
2024/01/23 08:27:46;;;;;;;4.35;2.17;;;17.10;54.10;;;;;;5052854;28;20175;-66
2024/01/23 08:30:15;;;;;;;4.18;1.90;;;17.00;54.30;;;;;;5053423;28;20179;-67
2024/01/23 08:32:41;;;;;;;6.07;2.42;;;17.00;54.40;;;;;;5053528;28;20167;-68
2024/01/23 08:35:07;;;;;;;4.93;2.15;;;16.90;54.40;;;;;;5053043;28;20194;-68
2024/01/23 08:37:32;;;;;;;4.60;2.05;;;16.90;54.60;;;;;;5053350;28;20179;-68
2024/01/23 08:39:58;;;;;;;6.13;1.55;;;16.90;54.60;;;;;;5053757;28;20218;-68
2024/01/23 08:42:23;;;;;;;5.32;2.20;;;16.90;54.50;;;;;;5052862;28;20262;-67
2024/01/23 08:44:50;;;;;;;5.78;2.13;;;16.90;54.70;;;;;;5053678;28;20705;-68
2024/01/23 08:47:16;;;;;;;5.30;1.95;;;16.90;54.70;;;;;;5053746;28;20175;-68
2024/01/23 08:49:41;;;;;;;5.82;1.90;;;17.00;55.30;;;;;;5053043;28;20187;-69
2024/01/23 08:52:07;;;;;;;3.92;1.73;;;17.10;54.60;;;;;;5053400;28;20534;-67
2024/01/23 08:54:34;;;;;;;4.38;1.80;;;17.00;54.50;;;;;;5053097;28;20697;-67
2024/01/23 08:57:00;;;;;;;7.10;2.10;;;17.10;54.60;;;;;;5052850;28;20163;-68
2024/01/23 08:59:27;;;;;;;6.10;2.10;;;17.10;54.60;;;;;;5052755;28;20237;-67
2024/01/23 09:01:53;;;;;;;5.35;2.10;;;17.10;54.50;;;;;;5053189;28;20646;-67
2024/01/23 09:04:18;;;;;;;6.15;2.15;;;17.10;54.50;;;;;;5052346;28;20189;-67
2024/01/23 09:06:44;;;;;;;5.30;2.42;;;17.10;54.50;;;;;;5053313;28;20177;-68
2024/01/23 09:09:10;;;;;;;4.78;1.95;;;17.10;54.40;;;;;;5052856;28;20179;-68
2024/01/23 09:11:36;;;;;;;6.30;2.22;;;17.10;54.50;;;;;;5052606;28;20175;-67
2024/01/23 09:14:01;;;;;;;4.78;2.38;;;17.00;54.40;;;;;;5052990;28;20560;-67
2024/01/23 09:16:27;;;;;;;6.47;1.70;;;17.00;54.50;;;;;;5051862;28;20729;-67
2024/01/23 09:18:52;;;;;;;3.50;2.08;;;17.00;54.50;;;;;;5052806;28;20290;-67
2024/01/23 09:21:18;;;;;;;6.95;2.10;;;17.00;54.60;;;;;;5052600;28;20271;-67
2024/01/23 09:23:43;;;;;;;7.88;2.72;;;16.90;54.50;;;;;;5052258;28;20266;-66
2024/01/23 09:26:11;;;;;;;5.20;2.30;;;16.90;54.60;;;;;;5052692;28;20258;-67
2024/01/23 09:28:36;;;;;;;4.32;2.13;;;16.90;54.60;;;;;;5052306;28;20278;-67
2024/01/23 09:31:02;;;;;;;4.43;1.90;;;16.90;54.70;;;;;;5051999;28;20694;-67
2024/01/23 09:33:27;;;;;;;4.65;2.10;;;16.80;54.70;;;;;;5052488;28;20253;-68
2024/01/23 09:35:53;;;;;;;4.95;2.00;;;16.90;54.70;;;;;;5052774;28;20175;-67
2024/01/23 09:38:18;;;;;;;3.33;1.75;;;16.80;54.70;;;;;;5051610;28;20194;-67
2024/01/23 09:40:46;;;;;;;4.88;2.38;;;16.80;54.80;;;;;;5052387;28;20576;-68
2024/01/23 09:43:12;;;;;;;4.05;2.38;;;16.80;54.90;;;;;;5051102;28;20693;-67
2024/01/23 09:45:38;;;;;;;4.50;2.20;;;16.80;55.00;;;;;;5051614;28;20274;-68
2024/01/23 09:48:04;;;;;;;4.43;2.15;;;16.80;54.90;;;;;;5051227;28;20179;-67
2024/01/23 09:50:30;;;;;;;4.63;2.13;;;16.80;55.10;;;;;;5050807;28;20704;-67
2024/01/23 09:52:56;;;;;;;4.53;2.30;;;16.80;55.10;;;;;;5050292;28;20222;-68
2024/01/23 09:55:21;;;;;;;6.68;2.47;;;16.80;55.10;;;;;;5050772;28;20186;-67
2024/01/23 09:57:49;;;;;;;5.80;2.63;;;16.80;55.00;;;;;;5052168;28;20272;-67
2024/01/23 10:00:15;;;;;;;4.28;2.15;;;16.70;55.00;;;;;;5051707;28;20206;-67
2024/01/23 10:02:43;;;;;;;6.00;2.22;;;16.70;55.00;;;;;;5051813;28;20182;-67
2024/01/23 10:05:10;;;;;;;6.75;2.38;;;16.70;55.00;;;;;;5051724;28;20171;-67
2024/01/23 10:07:39;;;;;;;8.35;2.53;;;16.70;55.00;;;;;;5051183;28;20179;-67
2024/01/23 10:10:15;;;;;;;7.15;2.72;;;16.60;55.00;;;;;;5052140;28;20202;-68
2024/01/23 10:12:44;;;;;;;3.72;1.90;;;16.60;55.00;;;;;;5051144;28;20646;-67
2024/01/23 10:15:11;;;;;;;6.72;2.50;;;16.70;55.10;;;;;;5052168;28;20262;-68
2024/01/23 10:17:37;;;;;;;7.47;2.75;;;16.60;55.00;;;;;;5051854;28;20183;-67
2024/01/23 10:20:02;;;;;;;6.38;2.50;;;16.60;55.20;;;;;;5051203;28;20286;-66
2024/01/23 10:22:28;;;;;;;6.22;2.28;;;16.60;55.10;;;;;;5051649;28;20175;-66
2024/01/23 10:24:54;;;;;;;5.53;2.00;;;16.60;55.10;;;;;;5051886;28;20262;-66
2024/01/23 10:27:19;;;;;;;8.90;2.50;;;16.60;55.10;;;;;;5051096;28;20210;-66
2024/01/23 10:29:45;;;;;;;5.85;2.92;;;16.60;55.80;;;;;;5051986;28;20251;-67
2024/01/23 10:32:10;;;;;;;5.78;2.72;;;16.60;55.10;;;;;;5052076;28;20646;-68
2024/01/23 10:34:36;;;;;;;5.20;2.40;;;16.60;55.10;;;;;;5049773;28;20189;-67
2024/01/23 10:37:01;;;;;;;7.72;2.50;;;16.60;55.00;;;;;;5051942;28;20171;-66
2024/01/23 10:39:27;;;;;;;7.00;2.50;;;16.60;55.10;;;;;;5051317;28;20218;-66
2024/01/23 10:41:53;;;;;;;6.45;2.47;;;16.60;55.00;;;;;;5049625;28;20225;-66
2024/01/23 10:44:28;;;;;;;7.10;2.42;;;16.50;55.00;;;;;;5051735;28;20183;-68
2024/01/23 10:46:55;;;;;;;8.43;2.65;;;16.50;55.00;;;;;;5057452;28;20231;-69
2024/01/23 10:49:22;;;;;;;6.25;2.25;;;16.60;55.10;;;;;;5062723;28;20261;-70
2024/01/23 10:51:48;;;;;;;7.30;2.50;;;16.50;55.10;;;;;;5070245;28;20660;-68
2024/01/23 10:54:31;;;;;;;6.90;2.25;;;16.50;55.10;;;;;;5060317;28;20234;-68
2024/01/23 10:56:59;;;;;;;6.13;2.60;;;16.40;54.90;;;;;;5049828;28;20175;-68
2024/01/23 10:59:26;;;;;;;9.93;2.78;;;16.40;54.90;;;;;;5051218;28;20294;-68
2024/01/23 11:01:55;;;;;;;7.15;2.42;;;16.40;54.90;;;;;;5053597;28;20241;-69
2024/01/23 11:04:20;;;;;;;8.60;2.40;;;16.40;55.00;;;;;;5053617;28;20174;-68
2024/01/23 11:06:55;;;;;;;7.78;2.88;;;16.40;55.00;;;;;;5071616;28;20167;-69
2024/01/23 11:09:37;;;;;;;6.07;2.42;;;16.40;55.00;;;;;;5069198;28;20173;-69
2024/01/23 11:12:14;;;;;;;6.40;2.55;;;16.40;54.80;;;;;;5070267;28;20182;-68
2024/01/23 11:15:00;;;;;;;7.53;2.83;;;16.40;54.90;;;;;;5070578;28;20189;-68
2024/01/23 11:17:31;;;;;;;7.82;2.90;;;16.40;55.00;;;;;;5073106;28;20178;-68
2024/01/23 11:20:08;;;;;;;6.30;2.17;;;16.40;54.90;;;;;;5063259;28;20217;-68
2024/01/23 11:22:34;;;;;;;8.63;2.83;;;16.30;54.90;;;;;;5054848;28;20167;-68
2024/01/23 11:25:00;;;;;;;8.52;2.58;;;16.40;55.00;;;;;;5054626;28;20560;-68
2024/01/23 11:27:25;;;;;;;5.45;2.40;;;16.30;54.90;;;;;;5054679;28;20289;-68
2024/01/23 11:29:51;;;;;;;7.65;2.90;;;16.30;54.80;;;;;;5054451;28;20260;-68
2024/01/23 11:32:23;;;;;;;6.18;2.88;;;16.30;54.80;;;;;;5054455;28;20672;-68
2024/01/23 11:35:02;;;;;;;7.55;2.40;;;16.30;54.70;;;;;;5054948;28;20203;-68
2024/01/23 11:37:48;;;;;;;7.18;2.42;;;16.30;54.70;;;;;;5053857;28;20254;-68
2024/01/23 11:40:33;;;;;;;6.55;2.67;;;16.40;54.60;;;;;;5055016;28;20233;-68
2024/01/23 11:43:03;;;;;;;8.20;2.80;;;16.40;55.30;;;;;;5054766;28;20183;-68
2024/01/23 11:45:36;;;;;;;6.95;2.53;;;16.40;54.70;;;;;;5053780;28;20272;-69
2024/01/23 11:48:20;;;;;;;7.85;2.72;;;16.40;54.60;;;;;;5053432;28;20186;-68
2024/01/23 11:50:45;;;;;;;6.38;2.38;;;16.40;54.50;;;;;;5054712;28;20182;-69
2024/01/23 11:53:13;;;;;;;7.82;2.75;;;16.40;54.50;;;;;;5056817;28;20222;-68
2024/01/23 11:55:39;;;;;;;6.55;2.55;;;16.40;54.50;;;;;;5074174;28;20171;-68
2024/01/23 11:58:04;;;;;;;6.30;2.45;;;16.40;54.40;;;;;;5073785;28;20181;-68
2024/01/23 12:00:30;;;;;;;5.78;2.42;;;16.40;54.50;;;;;;5073897;28;20220;-68
2024/01/23 12:02:55;;;;;;;9.15;3.10;;;16.50;54.50;;;;;;5074345;28;20202;-69
2024/01/23 12:05:21;;;;;;;5.75;2.35;;;16.40;54.60;;;;;;5073302;28;20179;-68
2024/01/23 12:07:47;;;;;;;10.95;2.72;;;16.40;54.60;;;;;;5074449;28;20171;-68
2024/01/23 12:10:17;;;;;;;9.98;3.20;;;16.40;54.60;;;;;;5074378;28;20629;-69
2024/01/23 12:12:42;;;;;;;6.25;2.30;;;16.50;54.60;;;;;;5073675;28;20268;-68
2024/01/23 12:15:08;;;;;;;7.10;2.38;;;16.50;54.80;;;;;;5074416;28;20629;-69
2024/01/23 12:17:34;;;;;;;6.22;2.03;;;16.40;54.70;;;;;;5073680;28;20174;-68
2024/01/23 12:20:09;;;;;;;6.65;2.58;;;16.40;54.70;;;;;;5073389;28;20301;-68
2024/01/23 12:22:37;;;;;;;7.72;2.45;;;16.40;54.60;;;;;;5073555;28;20234;-68
2024/01/23 12:25:06;;;;;;;7.65;2.30;;;16.40;54.70;;;;;;5072867;28;20185;-68
2024/01/23 12:27:32;;;;;;;5.00;2.20;;;16.40;54.60;;;;;;5072147;28;20178;-68
2024/01/23 12:30:00;;;;;;;5.78;2.50;;;16.40;54.60;;;;;;5073660;28;20179;-68
2024/01/23 12:32:27;;;;;;;5.72;2.38;;;16.40;54.70;;;;;;5073642;28;20178;-68
2024/01/23 12:34:53;;;;;;;7.50;2.70;;;16.40;54.60;;;;;;5072488;28;20239;-68
2024/01/23 12:37:18;;;;;;;13.05;3.97;;;16.40;54.40;;;;;;5073418;28;20178;-71
2024/01/23 12:39:44;;;;;;;7.90;2.47;;;16.40;54.60;;;;;;5073812;28;20668;-70
2024/01/23 12:42:09;;;;;;;7.18;2.60;;;16.40;54.70;;;;;;5071639;28;20636;-71
2024/01/23 12:44:36;;;;;;;8.65;2.72;;;16.40;54.90;;;;;;5073214;28;20178;-70